सभी
Hunter Island Airport YHTR मौसम
There is no TAF data available at YHTR or any nearby airports.
There is no METAR data available at YHTR. Showing METAR data for YSMI (28 mi SE).
Recent SIO METAR history (no data for YHTR)
| Date | Time (AEST) | Flight Rules | Wind Dir. | Speed | Type | Height AGL (ft) | Visibility | Temp (°C) | Temp (°F) | Dew Point (°C) | Dew Point (°F) | Rel. Humid. | Pressure | Density Altitude | Remarks |
|---|---|---|---|---|---|---|---|---|---|---|---|---|---|---|---|
| 04-मई | 23:00 | n/a | 180° | 10 kt | Missing | 13° | 55° | 11° | 51° | 88% | 1006 mb | 4 ft | |||
| 04-मई | 22:00 | n/a | 30° | 4 kt | Missing | 14° | 57° | 13° | 55° | 94% | 1006 mb | 124 ft | |||
| 04-मई | 21:00 | n/a | 10° | 7 kt | Missing | 15° | 59° | 13° | 55° | 88% | 1005 mb | 273 ft | |||
| 04-मई | 20:00 | n/a | 10° | 7 kt | Missing | 14° | 57° | 12° | 53° | 88% | 1006 mb | 124 ft | |||
| 04-मई | 19:00 | n/a | 10° | 12 kt | Missing | 16° | 60° | 12° | 53° | 77% | 1006 mb | 364 ft | |||
| 04-मई | 18:00 | n/a | 360° | 11 kt | Missing | 15° | 59° | 12° | 53° | 82% | 1006 mb | 244 ft | |||
| 04-मई | 17:00 | n/a | 360° | 10 kt | Missing | 15° | 59° | 13° | 55° | 88% | 1006 mb | 244 ft | |||
| 04-मई | 16:00 | n/a | 360° | 12 kt | Missing | 15° | 59° | 13° | 55° | 88% | 1006 mb | 244 ft | |||
| 04-मई | 15:00 | n/a | 350° | 13 kt | Missing | 16° | 60° | 12° | 53° | 77% | 1006 mb | 364 ft | |||
| 04-मई | 14:00 | n/a | 360° | 14 kt | Missing | 15° | 59° | 12° | 53° | 82% | 1006 mb | 244 ft | |||
| 04-मई | 13:00 | n/a | 10° | 15 kt | Missing | 16° | 60° | 13° | 55° | 82% | 1007 mb | 334 ft | |||
| 04-मई | 12:00 | n/a | 360° | 17 kt | Missing | 17° | 62° | 13° | 55° | 77% | 1008 mb | 425 ft | |||
| 04-मई | 11:00 | n/a | 360° | 15 kt | Missing | 17° | 62° | 12° | 53° | 72% | 1008 mb | 425 ft | |||
| 04-मई | 10:00 | n/a | 360° | 15 kt | Missing | 17° | 62° | 13° | 55° | 77% | 1008 mb | 425 ft | |||
| 04-मई | 09:00 | n/a | 360° | 13 kt | Missing | 16° | 60° | 12° | 53° | 77% | 1008 mb | 305 ft | |||
| 04-मई | 08:00 | n/a | 360° | 10 kt | Missing | 15° | 59° | 12° | 53° | 82% | 1008 mb | 185 ft | |||
| 04-मई | 07:00 | n/a | 360° | 9 kt | Missing | 14° | 57° | 12° | 53° | 88% | 1008 mb | 65 ft | |||
| 04-मई | 06:00 | n/a | 360° | 3 kt | Missing | 9° | 48° | 9° | 48° | 100% | 1008 mb | -535 ft | |||
| 04-मई | 05:00 | n/a | 350° | 4 kt | Missing | 10° | 50° | 9° | 48° | 93% | 1008 mb | -415 ft | |||
| 04-मई | 04:00 | n/a | 360° | 3 kt | Missing | 9° | 48° | 9° | 48° | 100% | 1008 mb | -535 ft | |||
| 04-मई | 03:00 | n/a | 100° | 4 kt | Missing | 10° | 50° | 9° | 48° | 93% | 1009 mb | -445 ft | |||
| 04-मई | 02:00 | n/a | 70° | 5 kt | Missing | 10° | 50° | 10° | 50° | 100% | 1009 mb | -445 ft | |||
| 04-मई | 01:00 | n/a | 110° | 3 kt | Missing | 8° | 46° | 8° | 46° | 100% | 1009 mb | -685 ft | |||
| 04-मई | 00:00 | n/a | Calm | Missing | 8° | 46° | 8° | 46° | 100% | 1009 mb | -685 ft |
लॉगिन
| Your browser is unsupported. अपना ब्राऊजर अपग्रेड करें |
